PWSweather.com
Personal Weather Stations
Station Observations
SOGDENUT
Weatherbearcam, South Ogden, UT 84405

WeatherbearcamSouth Ogden, UT 84405

Lat: 41.1549, Lon: -111.9485

Elevation: 4780

Station Type: Davis Vantage Vue

http://weatherbear.com

Latest ConditionsUpdated 12:15:35 PM MDT Tuesday, Sep 18, 2018
Currently Today's Max Today's Min Today's Average
Temperature 79.2°F26.2°C 80.3°F26.8°C 65.6°F18.7°C 70.8°F21.6°C
Dew Point 41.3°F5.2°C 43.9°F6.6°C 34.1°F1.2°C 38.0°F3.3°C
Winds 3.4 mph SW5.5 kmh SW 6.7 mph -10.8 kmh - - 3.5 mph 5.6 kmh
Wind Gusts 7.0 mph11.3 kmh 11.0 mph17.7 kmh - -
Humidity 26% 39% 25% 31%
Pressure 29.93 in1013.5 mb 29.95 in1014.2 mb 29.90 in1012.5 mb -
Hour Temp Dew Point Humidity Winds Wind Gusts Pressure Precip Precip Rate Daily Precip Total
12:15 PM 79.2°F26.2°C 41.3°F5.2°C 26% 3.4 mph SW5.5 kmh SW 7.0 mph11.3 kmh 29.93 in1013.5 mb 0.00 in0.0 mm 0.00 in0.0 mm 0.00 in0.0 mm
12:10 PM 79.4°F26.3°C 42.4°F5.8°C 27% 3.4 mph SW5.5 kmh SW 7.0 mph11.3 kmh 29.93 in1013.5 mb 0.00 in0.0 mm 0.00 in0.0 mm 0.00 in0.0 mm
12:05 PM 80.3°F26.8°C 41.2°F5.1°C 25% 4.1 mph S6.6 kmh S 10.0 mph16.1 kmh 29.93 in1013.5 mb 0.00 in0.0 mm 0.00 in0.0 mm 0.00 in0.0 mm
12:00 PM 79.7°F26.5°C 42.6°F5.9°C 27% 1.4 mph S2.3 kmh S 10.0 mph16.1 kmh 29.93 in1013.5 mb 0.00 in0.0 mm 0.00 in0.0 mm 0.00 in0.0 mm
11:55 AM 79.4°F26.3°C 41.4°F5.2°C 26% 4.3 mph SSE6.9 kmh SSE 10.0 mph16.1 kmh 29.93 in1013.5 mb 0.00 in0.0 mm 0.00 in0.0 mm 0.00 in0.0 mm
11:50 AM 79.1°F26.2°C 42.1°F5.6°C 27% 3.3 mph SSE5.3 kmh SSE 10.0 mph16.1 kmh 29.94 in1013.9 mb 0.00 in0.0 mm 0.00 in0.0 mm 0.00 in0.0 mm
11:45 AM 79.4°F26.3°C 42.4°F5.8°C 27% 4.0 mph SSE6.4 kmh SSE 9.0 mph14.5 kmh 29.94 in1013.9 mb 0.00 in0.0 mm 0.00 in0.0 mm 0.00 in0.0 mm
11:40 AM 79.5°F26.4°C 42.5°F5.8°C 27% 3.8 mph E6.1 kmh E 9.0 mph14.5 kmh 29.94 in1013.9 mb 0.00 in0.0 mm 0.00 in0.0 mm 0.00 in0.0 mm
11:35 AM 79.4°F26.3°C 43.3°F6.3°C 28% 5.5 mph ESE8.9 kmh ESE 9.0 mph14.5 kmh 29.94 in1013.9 mb 0.00 in0.0 mm 0.00 in0.0 mm 0.00 in0.0 mm
11:30 AM 79.5°F26.4°C 43.5°F6.4°C 28% 2.4 mph ENE3.9 kmh ENE 6.0 mph9.7 kmh 29.94 in1013.9 mb 0.00 in0.0 mm 0.00 in0.0 mm 0.00 in0.0 mm
11:25 AM 78.9°F26.1°C 43.9°F6.6°C 29% 2.1 mph ESE3.4 kmh ESE 7.0 mph11.3 kmh 29.94 in1013.9 mb 0.00 in0.0 mm 0.00 in0.0 mm 0.00 in0.0 mm
11:20 AM 78.3°F25.7°C 43.4°F6.3°C 29% 2.4 mph S3.9 kmh S 8.0 mph12.9 kmh 29.94 in1013.9 mb 0.00 in0.0 mm 0.00 in0.0 mm 0.00 in0.0 mm
11:15 AM 77.4°F25.2°C 43.4°F6.3°C 30% 2.2 mph SE3.5 kmh SE 9.0 mph14.5 kmh 29.94 in1013.9 mb 0.00 in0.0 mm 0.00 in0.0 mm 0.00 in0.0 mm
11:10 AM 77.4°F25.2°C 42.5°F5.8°C 29% 3.8 mph E6.1 kmh E 9.0 mph14.5 kmh 29.94 in1013.9 mb 0.00 in0.0 mm 0.00 in0.0 mm 0.00 in0.0 mm
11:05 AM 77.6°F25.3°C 41.8°F5.4°C 28% 5.1 mph E8.2 kmh E 9.0 mph14.5 kmh 29.95 in1014.2 mb 0.00 in0.0 mm 0.00 in0.0 mm 0.00 in0.0 mm
11:00 AM 77.2°F25.1°C 41.4°F5.2°C 28% 2.9 mph SE4.7 kmh SE 8.0 mph12.9 kmh 29.95 in1014.2 mb 0.00 in0.0 mm 0.00 in0.0 mm 0.00 in0.0 mm
10:55 AM 77.2°F25.1°C 42.3°F5.7°C 29% 3.3 mph SE5.3 kmh SE 7.0 mph11.3 kmh 29.95 in1014.2 mb 0.00 in0.0 mm 0.00 in0.0 mm 0.00 in0.0 mm
10:50 AM 77.0°F25.0°C 41.2°F5.1°C 28% 2.4 mph SE3.9 kmh SE 7.0 mph11.3 kmh 29.95 in1014.2 mb 0.00 in0.0 mm 0.00 in0.0 mm 0.00 in0.0 mm
10:45 AM 76.8°F24.9°C 42.0°F5.6°C 29% 2.6 mph SE4.2 kmh SE 6.0 mph9.7 kmh 29.95 in1014.2 mb 0.00 in0.0 mm 0.00 in0.0 mm 0.00 in0.0 mm
10:40 AM 76.7°F24.8°C 43.6°F6.4°C 31% 1.8 mph E2.9 kmh E 5.0 mph8.0 kmh 29.95 in1014.2 mb 0.00 in0.0 mm 0.00 in0.0 mm 0.00 in0.0 mm
10:35 AM 76.1°F24.5°C 43.3°F6.3°C 31% 2.0 mph E3.2 kmh E 4.0 mph6.4 kmh 29.95 in1014.2 mb 0.00 in0.0 mm 0.00 in0.0 mm 0.00 in0.0 mm
10:30 AM 75.5°F24.2°C 41.0°F5.0°C 29% 3.0 mph E4.8 kmh E 4.0 mph6.4 kmh 29.95 in1014.2 mb 0.00 in0.0 mm 0.00 in0.0 mm 0.00 in0.0 mm
10:25 AM 75.0°F23.9°C 41.3°F5.2°C 30% 2.5 mph E4.0 kmh E 4.0 mph6.4 kmh 29.95 in1014.2 mb 0.00 in0.0 mm 0.00 in0.0 mm 0.00 in0.0 mm
10:20 AM 74.8°F23.8°C 41.1°F5.1°C 30% 1.8 mph E2.9 kmh E 4.0 mph6.4 kmh 29.95 in1014.2 mb 0.00 in0.0 mm 0.00 in0.0 mm 0.00 in0.0 mm
10:15 AM 74.6°F23.7°C 40.1°F4.5°C 29% 1.4 mph SE2.3 kmh SE 4.0 mph6.4 kmh 29.95 in1014.2 mb 0.00 in0.0 mm 0.00 in0.0 mm 0.00 in0.0 mm
10:10 AM 74.1°F23.4°C 39.6°F4.2°C 29% 1.1 mph SSE1.8 kmh SSE 4.0 mph6.4 kmh 29.95 in1014.2 mb 0.00 in0.0 mm 0.00 in0.0 mm 0.00 in0.0 mm
10:05 AM 74.0°F23.3°C 39.6°F4.2°C 29% 2.3 mph E3.7 kmh E 3.0 mph4.8 kmh 29.95 in1014.2 mb 0.00 in0.0 mm 0.00 in0.0 mm 0.00 in0.0 mm
10:00 AM 73.3°F22.9°C 39.0°F3.9°C 29% 1.5 mph ENE2.4 kmh ENE 3.0 mph4.8 kmh 29.95 in1014.2 mb 0.00 in0.0 mm 0.00 in0.0 mm 0.00 in0.0 mm
09:55 AM 72.8°F22.7°C 39.4°F4.1°C 30% 2.1 mph ENE3.4 kmh ENE 3.0 mph4.8 kmh 29.95 in1014.2 mb 0.00 in0.0 mm 0.00 in0.0 mm 0.00 in0.0 mm
09:50 AM 71.5°F21.9°C 39.9°F4.4°C 32% Calm Calm 3.0 mph4.8 kmh 29.95 in1014.2 mb 0.00 in0.0 mm 0.00 in0.0 mm 0.00 in0.0 mm
09:45 AM 70.5°F21.4°C 39.8°F4.3°C 33% Calm Calm 5.0 mph8.0 kmh 29.95 in1014.2 mb 0.00 in0.0 mm 0.00 in0.0 mm 0.00 in0.0 mm
09:40 AM 70.7°F21.5°C 40.8°F4.9°C 34% Calm Calm 6.0 mph9.7 kmh 29.95 in1014.2 mb 0.00 in0.0 mm 0.00 in0.0 mm 0.00 in0.0 mm
09:36 AM 71.8°F22.1°C 41.9°F5.5°C 34% Calm Calm 6.0 mph9.7 kmh 29.95 in1014.2 mb 0.00 in0.0 mm 0.00 in0.0 mm 0.00 in0.0 mm
09:31 AM 72.5°F22.5°C 43.9°F6.6°C 36% 2.0 mph SE3.2 kmh SE 6.0 mph9.7 kmh 29.94 in1013.9 mb 0.00 in0.0 mm 0.00 in0.0 mm 0.00 in0.0 mm
09:26 AM 71.9°F22.2°C 40.3°F4.6°C 32% 3.2 mph E5.1 kmh E 6.0 mph9.7 kmh 29.94 in1013.9 mb 0.00 in0.0 mm 0.00 in0.0 mm 0.00 in0.0 mm
09:21 AM 72.0°F22.2°C 39.5°F4.2°C 31% 1.8 mph E2.9 kmh E 6.0 mph9.7 kmh 29.94 in1013.9 mb 0.00 in0.0 mm 0.00 in0.0 mm 0.00 in0.0 mm
09:16 AM 71.7°F22.1°C 38.4°F3.6°C 30% 1.6 mph E2.6 kmh E 5.0 mph8.0 kmh 29.94 in1013.9 mb 0.00 in0.0 mm 0.00 in0.0 mm 0.00 in0.0 mm
09:11 AM 71.5°F21.9°C 39.9°F4.4°C 32% 2.6 mph ENE4.2 kmh ENE 5.0 mph8.0 kmh 29.94 in1013.9 mb 0.00 in0.0 mm 0.00 in0.0 mm 0.00 in0.0 mm
09:06 AM 71.5°F21.9°C 39.1°F3.9°C 31% 2.6 mph E4.2 kmh E 5.0 mph8.0 kmh 29.94 in1013.9 mb 0.00 in0.0 mm 0.00 in0.0 mm 0.00 in0.0 mm
09:01 AM 70.7°F21.5°C 36.7°F2.6°C 29% 3.0 mph ENE4.8 kmh ENE 6.0 mph9.7 kmh 29.94 in1013.9 mb 0.00 in0.0 mm 0.00 in0.0 mm 0.00 in0.0 mm
08:56 AM 69.9°F21.1°C 36.0°F2.2°C 29% 3.5 mph ENE5.6 kmh ENE 6.0 mph9.7 kmh 29.94 in1013.9 mb 0.00 in0.0 mm 0.00 in0.0 mm 0.00 in0.0 mm
08:51 AM 69.2°F20.7°C 36.3°F2.4°C 30% 4.0 mph E6.4 kmh E 7.0 mph11.3 kmh 29.94 in1013.9 mb 0.00 in0.0 mm 0.00 in0.0 mm 0.00 in0.0 mm
08:46 AM 68.8°F20.4°C 36.1°F2.3°C 30% 5.2 mph ENE8.4 kmh ENE 7.0 mph11.3 kmh 29.94 in1013.9 mb 0.00 in0.0 mm 0.00 in0.0 mm 0.00 in0.0 mm
08:41 AM 68.2°F20.1°C 39.3°F4.1°C 35% 2.6 mph E4.2 kmh E 6.0 mph9.7 kmh 29.94 in1013.9 mb 0.00 in0.0 mm 0.00 in0.0 mm 0.00 in0.0 mm
08:36 AM 67.7°F19.8°C 36.8°F2.7°C 32% 3.6 mph E5.8 kmh E 5.0 mph8.0 kmh 29.95 in1014.2 mb 0.00 in0.0 mm 0.00 in0.0 mm 0.00 in0.0 mm
08:31 AM 68.4°F20.2°C 37.2°F2.9°C 32% 1.6 mph ESE2.6 kmh ESE 6.0 mph9.7 kmh 29.95 in1014.2 mb 0.00 in0.0 mm 0.00 in0.0 mm 0.00 in0.0 mm
08:26 AM 68.5°F20.3°C 37.5°F3.1°C 32% 2.6 mph E4.2 kmh E 6.0 mph9.7 kmh 29.94 in1013.9 mb 0.00 in0.0 mm 0.00 in0.0 mm 0.00 in0.0 mm
08:21 AM 68.6°F20.3°C 36.6°F2.6°C 31% 3.3 mph ENE5.3 kmh ENE 7.0 mph11.3 kmh 29.94 in1013.9 mb 0.00 in0.0 mm 0.00 in0.0 mm 0.00 in0.0 mm
08:16 AM 68.1°F20.1°C 35.3°F1.8°C 30% 3.5 mph ENE5.6 kmh ENE 7.0 mph11.3 kmh 29.94 in1013.9 mb 0.00 in0.0 mm 0.00 in0.0 mm 0.00 in0.0 mm
08:11 AM 68.0°F20.0°C 35.2°F1.8°C 30% 4.2 mph E6.8 kmh E 7.0 mph11.3 kmh 29.94 in1013.9 mb 0.00 in0.0 mm 0.00 in0.0 mm 0.00 in0.0 mm
08:06 AM 67.8°F19.9°C 35.0°F1.7°C 30% 4.0 mph ENE6.4 kmh ENE 7.0 mph11.3 kmh 29.94 in1013.9 mb 0.00 in0.0 mm 0.00 in0.0 mm 0.00 in0.0 mm
08:01 AM 67.5°F19.7°C 34.8°F1.6°C 30% 4.1 mph ENE6.6 kmh ENE 7.0 mph11.3 kmh 29.94 in1013.9 mb 0.00 in0.0 mm 0.00 in0.0 mm 0.00 in0.0 mm
07:56 AM 67.3°F19.6°C 34.8°F1.6°C 30% 5.1 mph ENE8.2 kmh ENE 7.0 mph11.3 kmh 29.94 in1013.9 mb 0.00 in0.0 mm 0.00 in0.0 mm 0.00 in0.0 mm
07:51 AM 67.2°F19.6°C 34.7°F1.5°C 30% 4.4 mph ENE7.1 kmh ENE 7.0 mph11.3 kmh 29.94 in1013.9 mb 0.00 in0.0 mm 0.00 in0.0 mm 0.00 in0.0 mm
07:46 AM 67.3°F19.6°C 34.8°F1.6°C 30% 4.9 mph ENE7.9 kmh ENE 7.0 mph11.3 kmh 29.94 in1013.9 mb 0.00 in0.0 mm 0.00 in0.0 mm 0.00 in0.0 mm
07:41 AM 67.3°F19.6°C 34.6°F1.4°C 30% 4.4 mph ENE7.1 kmh ENE 8.0 mph12.9 kmh 29.94 in1013.9 mb 0.00 in0.0 mm 0.00 in0.0 mm 0.00 in0.0 mm
07:36 AM 67.1°F19.5°C 34.4°F1.3°C 30% 5.1 mph ENE8.2 kmh ENE 8.0 mph12.9 kmh 29.94 in1013.9 mb 0.00 in0.0 mm 0.00 in0.0 mm 0.00 in0.0 mm
07:30 AM 67.7°F19.8°C 34.1°F1.2°C 29% 4.9 mph ENE7.9 kmh ENE 9.0 mph14.5 kmh 29.94 in1013.9 mb 0.00 in0.0 mm 0.00 in0.0 mm 0.00 in0.0 mm
07:25 AM 68.0°F20.0°C 34.4°F1.3°C 29% 5.3 mph ENE8.5 kmh ENE 9.0 mph14.5 kmh 29.94 in1013.9 mb 0.00 in0.0 mm 0.00 in0.0 mm 0.00 in0.0 mm
07:20 AM 67.8°F19.9°C 34.4°F1.3°C 29% 4.9 mph NE7.9 kmh NE 7.0 mph11.3 kmh 29.94 in1013.9 mb 0.00 in0.0 mm 0.00 in0.0 mm 0.00 in0.0 mm
07:15 AM 67.8°F19.9°C 34.4°F1.3°C 29% 3.9 mph ENE6.3 kmh ENE 7.0 mph11.3 kmh 29.94 in1013.9 mb 0.00 in0.0 mm 0.00 in0.0 mm 0.00 in0.0 mm
07:10 AM 68.1°F20.1°C 34.5°F1.4°C 29% 4.1 mph ENE6.6 kmh ENE 7.0 mph11.3 kmh 29.93 in1013.5 mb 0.00 in0.0 mm 0.00 in0.0 mm 0.00 in0.0 mm
07:05 AM 68.1°F20.1°C 34.6°F1.4°C 29% 3.4 mph ENE5.5 kmh ENE 8.0 mph12.9 kmh 29.93 in1013.5 mb 0.00 in0.0 mm 0.00 in0.0 mm 0.00 in0.0 mm
07:00 AM 68.3°F20.2°C 34.8°F1.6°C 29% 4.6 mph NE7.4 kmh NE 8.0 mph12.9 kmh 29.93 in1013.5 mb 0.00 in0.0 mm 0.00 in0.0 mm 0.00 in0.0 mm
06:55 AM 68.2°F20.1°C 34.5°F1.4°C 29% 4.5 mph ENE7.2 kmh ENE 7.0 mph11.3 kmh 29.93 in1013.5 mb 0.00 in0.0 mm 0.00 in0.0 mm 0.00 in0.0 mm
06:50 AM 68.2°F20.1°C 34.5°F1.4°C 29% 3.7 mph ENE6.0 kmh ENE 8.0 mph12.9 kmh 29.93 in1013.5 mb 0.00 in0.0 mm 0.00 in0.0 mm 0.00 in0.0 mm
06:45 AM 68.5°F20.3°C 34.8°F1.6°C 29% 4.4 mph ENE7.1 kmh ENE 8.0 mph12.9 kmh 29.93 in1013.5 mb 0.00 in0.0 mm 0.00 in0.0 mm 0.00 in0.0 mm
06:40 AM 68.3°F20.2°C 34.6°F1.4°C 29% 4.1 mph ENE6.6 kmh ENE 8.0 mph12.9 kmh 29.93 in1013.5 mb 0.00 in0.0 mm 0.00 in0.0 mm 0.00 in0.0 mm
06:37 AM 68.6°F20.3°C 34.9°F1.6°C 29% 4.9 mph ENE7.9 kmh ENE 9.0 mph14.5 kmh 29.93 in1013.5 mb 0.00 in0.0 mm 0.00 in0.0 mm 0.00 in0.0 mm
06:32 AM 68.8°F20.4°C 34.2°F1.2°C 28% 5.1 mph ENE8.2 kmh ENE 9.0 mph14.5 kmh 29.93 in1013.5 mb 0.00 in0.0 mm 0.00 in0.0 mm 0.00 in0.0 mm
06:27 AM 68.9°F20.5°C 34.3°F1.3°C 28% 5.3 mph ENE8.5 kmh ENE 8.0 mph12.9 kmh 29.93 in1013.5 mb 0.00 in0.0 mm 0.00 in0.0 mm 0.00 in0.0 mm
06:22 AM 69.0°F20.6°C 34.4°F1.3°C 28% 4.0 mph ENE6.4 kmh ENE 8.0 mph12.9 kmh 29.92 in1013.2 mb 0.00 in0.0 mm 0.00 in0.0 mm 0.00 in0.0 mm
06:17 AM 69.1°F20.6°C 34.4°F1.3°C 28% 4.6 mph NE7.4 kmh NE 8.0 mph12.9 kmh 29.93 in1013.5 mb 0.00 in0.0 mm 0.00 in0.0 mm 0.00 in0.0 mm
06:12 AM 69.3°F20.7°C 34.8°F1.6°C 28% 5.8 mph NE9.3 kmh NE 9.0 mph14.5 kmh 29.92 in1013.2 mb 0.00 in0.0 mm 0.00 in0.0 mm 0.00 in0.0 mm
06:07 AM 69.2°F20.7°C 34.5°F1.4°C 28% 5.2 mph NE8.4 kmh NE 9.0 mph14.5 kmh 29.92 in1013.2 mb 0.00 in0.0 mm 0.00 in0.0 mm 0.00 in0.0 mm
06:02 AM 69.0°F20.6°C 34.5°F1.4°C 28% 4.9 mph NE7.9 kmh NE 8.0 mph12.9 kmh 29.92 in1013.2 mb 0.00 in0.0 mm 0.00 in0.0 mm 0.00 in0.0 mm
05:56 AM 68.7°F20.4°C 35.0°F1.7°C 29% 4.3 mph NE6.9 kmh NE 9.0 mph14.5 kmh 29.92 in1013.2 mb 0.00 in0.0 mm 0.00 in0.0 mm 0.00 in0.0 mm
05:51 AM 68.9°F20.5°C 34.4°F1.3°C 28% 5.4 mph NE8.7 kmh NE 9.0 mph14.5 kmh 29.92 in1013.2 mb 0.00 in0.0 mm 0.00 in0.0 mm 0.00 in0.0 mm
05:46 AM 68.3°F20.2°C 34.8°F1.6°C 29% 4.6 mph ENE7.4 kmh ENE 6.0 mph9.7 kmh 29.92 in1013.2 mb 0.00 in0.0 mm 0.00 in0.0 mm 0.00 in0.0 mm
05:41 AM 68.4°F20.2°C 35.6°F2.0°C 30% 3.6 mph ENE5.8 kmh ENE 6.0 mph9.7 kmh 29.92 in1013.2 mb 0.00 in0.0 mm 0.00 in0.0 mm 0.00 in0.0 mm
05:36 AM 68.6°F20.3°C 35.7°F2.1°C 30% 2.8 mph NE4.5 kmh NE 7.0 mph11.3 kmh 29.92 in1013.2 mb 0.00 in0.0 mm 0.00 in0.0 mm 0.00 in0.0 mm
05:31 AM 68.6°F20.3°C 35.7°F2.1°C 30% 3.5 mph NE5.6 kmh NE 7.0 mph11.3 kmh 29.92 in1013.2 mb 0.00 in0.0 mm 0.00 in0.0 mm 0.00 in0.0 mm
05:26 AM 68.6°F20.3°C 35.7°F2.1°C 30% 4.2 mph ENE6.8 kmh ENE 10.0 mph16.1 kmh 29.92 in1013.2 mb 0.00 in0.0 mm 0.00 in0.0 mm 0.00 in0.0 mm
05:21 AM 69.1°F20.6°C 35.3°F1.8°C 29% 4.0 mph NE6.4 kmh NE 11.0 mph17.7 kmh 29.92 in1013.2 mb 0.00 in0.0 mm 0.00 in0.0 mm 0.00 in0.0 mm
05:16 AM 69.6°F20.9°C 35.8°F2.1°C 29% 4.4 mph ENE7.1 kmh ENE 11.0 mph17.7 kmh 29.92 in1013.2 mb 0.00 in0.0 mm 0.00 in0.0 mm 0.00 in0.0 mm
05:11 AM 69.6°F20.9°C 35.8°F2.1°C 29% 6.7 mph E10.8 kmh E 11.0 mph17.7 kmh 29.92 in1013.2 mb 0.00 in0.0 mm 0.00 in0.0 mm 0.00 in0.0 mm
05:06 AM 69.5°F20.8°C 35.7°F2.1°C 29% 5.0 mph ENE8.0 kmh ENE 9.0 mph14.5 kmh 29.92 in1013.2 mb 0.00 in0.0 mm 0.00 in0.0 mm 0.00 in0.0 mm
05:01 AM 69.7°F20.9°C 35.8°F2.1°C 29% 5.3 mph ENE8.5 kmh ENE 8.0 mph12.9 kmh 29.92 in1013.2 mb 0.00 in0.0 mm 0.00 in0.0 mm 0.00 in0.0 mm
04:56 AM 69.4°F20.8°C 36.4°F2.4°C 30% 4.8 mph ENE7.7 kmh ENE 8.0 mph12.9 kmh 29.92 in1013.2 mb 0.00 in0.0 mm 0.00 in0.0 mm 0.00 in0.0 mm
04:51 AM 69.6°F20.9°C 36.6°F2.6°C 30% 5.3 mph ENE8.5 kmh ENE 9.0 mph14.5 kmh 29.92 in1013.2 mb 0.00 in0.0 mm 0.00 in0.0 mm 0.00 in0.0 mm
04:46 AM 69.1°F20.6°C 36.2°F2.3°C 30% 5.4 mph ENE8.7 kmh ENE 9.0 mph14.5 kmh 29.92 in1013.2 mb 0.00 in0.0 mm 0.00 in0.0 mm 0.00 in0.0 mm
04:41 AM 69.7°F20.9°C 36.9°F2.7°C 30% 4.0 mph ENE6.4 kmh ENE 6.0 mph9.7 kmh 29.92 in1013.2 mb 0.00 in0.0 mm 0.00 in0.0 mm 0.00 in0.0 mm
04:36 AM 69.3°F20.7°C 36.5°F2.5°C 30% 4.4 mph ENE7.1 kmh ENE 7.0 mph11.3 kmh 29.92 in1013.2 mb 0.00 in0.0 mm 0.00 in0.0 mm 0.00 in0.0 mm
04:31 AM 69.8°F21.0°C 36.8°F2.7°C 30% 3.9 mph E6.3 kmh E 8.0 mph12.9 kmh 29.92 in1013.2 mb 0.00 in0.0 mm 0.00 in0.0 mm 0.00 in0.0 mm
04:26 AM 69.5°F20.8°C 36.5°F2.5°C 30% 4.8 mph ENE7.7 kmh ENE 8.0 mph12.9 kmh 29.92 in1013.2 mb 0.00 in0.0 mm 0.00 in0.0 mm 0.00 in0.0 mm
04:21 AM 69.9°F21.1°C 36.9°F2.7°C 30% 4.8 mph ENE7.7 kmh ENE 9.0 mph14.5 kmh 29.92 in1013.2 mb 0.00 in0.0 mm 0.00 in0.0 mm 0.00 in0.0 mm
04:16 AM 70.5°F21.4°C 37.4°F3.0°C 30% 5.0 mph ENE8.0 kmh ENE 9.0 mph14.5 kmh 29.92 in1013.2 mb 0.00 in0.0 mm 0.00 in0.0 mm 0.00 in0.0 mm
04:11 AM 69.8°F21.0°C 36.8°F2.7°C 30% 4.6 mph ENE7.4 kmh ENE 7.0 mph11.3 kmh 29.92 in1013.2 mb 0.00 in0.0 mm 0.00 in0.0 mm 0.00 in0.0 mm
04:06 AM 70.3°F21.3°C 37.2°F2.9°C 30% 3.1 mph E5.0 kmh E 8.0 mph12.9 kmh 29.92 in1013.2 mb 0.00 in0.0 mm 0.00 in0.0 mm 0.00 in0.0 mm
04:01 AM 70.5°F21.4°C 37.6°F3.1°C 30% 4.6 mph ENE7.4 kmh ENE 9.0 mph14.5 kmh 29.92 in1013.2 mb 0.00 in0.0 mm 0.00 in0.0 mm 0.00 in0.0 mm
03:56 AM 70.8°F21.6°C 37.8°F3.2°C 30% 3.0 mph E4.8 kmh E 9.0 mph14.5 kmh 29.92 in1013.2 mb 0.00 in0.0 mm 0.00 in0.0 mm 0.00 in0.0 mm
03:51 AM 71.3°F21.8°C 37.4°F3.0°C 29% 5.0 mph E8.0 kmh E 9.0 mph14.5 kmh 29.92 in1013.2 mb 0.00 in0.0 mm 0.00 in0.0 mm 0.00 in0.0 mm
03:46 AM 70.5°F21.4°C 37.6°F3.1°C 30% 5.8 mph ENE9.3 kmh ENE 9.0 mph14.5 kmh 29.92 in1013.2 mb 0.00 in0.0 mm 0.00 in0.0 mm 0.00 in0.0 mm
03:41 AM 71.2°F21.8°C 37.3°F2.9°C 29% 4.8 mph E7.7 kmh E 9.0 mph14.5 kmh 29.92 in1013.2 mb 0.00 in0.0 mm 0.00 in0.0 mm 0.00 in0.0 mm
03:37 AM 71.0°F21.7°C 37.8°F3.2°C 30% 4.1 mph ENE6.6 kmh ENE 7.0 mph11.3 kmh 29.92 in1013.2 mb 0.00 in0.0 mm 0.00 in0.0 mm 0.00 in0.0 mm
03:32 AM 71.7°F22.1°C 38.6°F3.7°C 30% 4.9 mph E7.9 kmh E 8.0 mph12.9 kmh 29.92 in1013.2 mb 0.00 in0.0 mm 0.00 in0.0 mm 0.00 in0.0 mm
03:27 AM 71.8°F22.1°C 37.8°F3.2°C 29% 4.6 mph ENE7.4 kmh ENE 9.0 mph14.5 kmh 29.92 in1013.2 mb 0.00 in0.0 mm 0.00 in0.0 mm 0.00 in0.0 mm
03:22 AM 72.1°F22.3°C 38.1°F3.4°C 29% 4.8 mph ENE7.7 kmh ENE 9.0 mph14.5 kmh 29.92 in1013.2 mb 0.00 in0.0 mm 0.00 in0.0 mm 0.00 in0.0 mm
03:17 AM 72.1°F22.3°C 38.8°F3.8°C 30% 6.0 mph ENE9.7 kmh ENE 10.0 mph16.1 kmh 29.92 in1013.2 mb 0.00 in0.0 mm 0.00 in0.0 mm 0.00 in0.0 mm
03:12 AM 72.1°F22.3°C 38.8°F3.8°C 30% 6.6 mph ENE10.6 kmh ENE 10.0 mph16.1 kmh 29.92 in1013.2 mb 0.00 in0.0 mm 0.00 in0.0 mm 0.00 in0.0 mm
03:07 AM 71.5°F21.9°C 38.3°F3.5°C 30% 6.5 mph ENE10.5 kmh ENE 10.0 mph16.1 kmh 29.92 in1013.2 mb 0.00 in0.0 mm 0.00 in0.0 mm 0.00 in0.0 mm
03:02 AM 70.7°F21.5°C 39.2°F4.0°C 32% 6.1 mph ENE9.8 kmh ENE 10.0 mph16.1 kmh 29.92 in1013.2 mb 0.00 in0.0 mm 0.00 in0.0 mm 0.00 in0.0 mm
02:57 AM 70.1°F21.2°C 38.7°F3.7°C 32% 4.9 mph ENE7.9 kmh ENE 8.0 mph12.9 kmh 29.92 in1013.2 mb 0.00 in0.0 mm 0.00 in0.0 mm 0.00 in0.0 mm
02:52 AM 70.0°F21.1°C 39.4°F4.1°C 33% 4.7 mph ENE7.6 kmh ENE 8.0 mph12.9 kmh 29.92 in1013.2 mb 0.00 in0.0 mm 0.00 in0.0 mm 0.00 in0.0 mm
02:47 AM 69.8°F21.0°C 38.4°F3.6°C 32% 5.0 mph NE8.0 kmh NE 9.0 mph14.5 kmh 29.92 in1013.2 mb 0.00 in0.0 mm 0.00 in0.0 mm 0.00 in0.0 mm
02:42 AM 69.4°F20.8°C 38.9°F3.8°C 33% 5.6 mph NE9.0 kmh NE 9.0 mph14.5 kmh 29.92 in1013.2 mb 0.00 in0.0 mm 0.00 in0.0 mm 0.00 in0.0 mm
02:37 AM 68.8°F20.4°C 38.3°F3.5°C 33% 4.6 mph ENE7.4 kmh ENE 8.0 mph12.9 kmh 29.92 in1013.2 mb 0.00 in0.0 mm 0.00 in0.0 mm 0.00 in0.0 mm
02:32 AM 68.1°F20.1°C 38.5°F3.6°C 34% 5.8 mph NE9.3 kmh NE 8.0 mph12.9 kmh 29.92 in1013.2 mb 0.00 in0.0 mm 0.00 in0.0 mm 0.00 in0.0 mm
02:27 AM 67.5°F19.7°C 39.4°F4.1°C 36% 3.9 mph NE6.3 kmh NE 7.0 mph11.3 kmh 29.92 in1013.2 mb 0.00 in0.0 mm 0.00 in0.0 mm 0.00 in0.0 mm
02:22 AM 66.5°F19.2°C 39.2°F4.0°C 37% 2.8 mph NE4.5 kmh NE 6.0 mph9.7 kmh 29.92 in1013.2 mb 0.00 in0.0 mm 0.00 in0.0 mm 0.00 in0.0 mm
02:17 AM 66.4°F19.1°C 39.9°F4.4°C 38% 2.3 mph NE3.7 kmh NE 6.0 mph9.7 kmh 29.92 in1013.2 mb 0.00 in0.0 mm 0.00 in0.0 mm 0.00 in0.0 mm
02:12 AM 65.8°F18.8°C 39.3°F4.1°C 38% 1.8 mph NE2.9 kmh NE 7.0 mph11.3 kmh 29.92 in1013.2 mb 0.00 in0.0 mm 0.00 in0.0 mm 0.00 in0.0 mm
02:07 AM 65.6°F18.7°C 40.0°F4.4°C 39% 3.1 mph NE5.0 kmh NE 7.0 mph11.3 kmh 29.92 in1013.2 mb 0.00 in0.0 mm 0.00 in0.0 mm 0.00 in0.0 mm
02:02 AM 66.0°F18.9°C 39.5°F4.2°C 38% 1.8 mph NE2.9 kmh NE 5.0 mph8.0 kmh 29.92 in1013.2 mb 0.00 in0.0 mm 0.00 in0.0 mm 0.00 in0.0 mm
01:57 AM 66.3°F19.1°C 39.1°F3.9°C 37% 1.0 mph 1.6 kmh 4.0 mph6.4 kmh 29.92 in1013.2 mb 0.00 in0.0 mm 0.00 in0.0 mm 0.00 in0.0 mm
01:52 AM 66.6°F19.2°C 39.3°F4.1°C 37% 1.0 mph NNE1.6 kmh NNE 4.0 mph6.4 kmh 29.92 in1013.2 mb 0.00 in0.0 mm 0.00 in0.0 mm 0.00 in0.0 mm
01:47 AM 66.9°F19.4°C 38.9°F3.8°C 36% Calm Calm 5.0 mph8.0 kmh 29.92 in1013.2 mb 0.00 in0.0 mm 0.00 in0.0 mm 0.00 in0.0 mm
01:42 AM 67.0°F19.4°C 39.0°F3.9°C 36% 2.1 mph NNW3.4 kmh NNW 5.0 mph8.0 kmh 29.92 in1013.2 mb 0.00 in0.0 mm 0.00 in0.0 mm 0.00 in0.0 mm
01:37 AM 67.4°F19.7°C 38.6°F3.7°C 35% 1.0 mph NNW1.6 kmh NNW 5.0 mph8.0 kmh 29.92 in1013.2 mb 0.00 in0.0 mm 0.00 in0.0 mm 0.00 in0.0 mm
01:32 AM 67.7°F19.8°C 38.9°F3.8°C 35% 2.3 mph NNW3.7 kmh NNW 5.0 mph8.0 kmh 29.92 in1013.2 mb 0.00 in0.0 mm 0.00 in0.0 mm 0.00 in0.0 mm
01:27 AM 67.0°F19.4°C 39.1°F3.9°C 36% 2.6 mph NW4.2 kmh NW 4.0 mph6.4 kmh 29.92 in1013.2 mb 0.00 in0.0 mm 0.00 in0.0 mm 0.00 in0.0 mm
01:22 AM 66.9°F19.4°C 38.9°F3.8°C 36% 2.0 mph WNW3.2 kmh WNW 3.0 mph4.8 kmh 29.91 in1012.9 mb 0.00 in0.0 mm 0.00 in0.0 mm 0.00 in0.0 mm
01:17 AM 66.7°F19.3°C 38.7°F3.7°C 36% 1.9 mph W3.1 kmh W 4.0 mph6.4 kmh 29.91 in1012.9 mb 0.00 in0.0 mm 0.00 in0.0 mm 0.00 in0.0 mm
01:12 AM 66.9°F19.4°C 38.2°F3.4°C 35% 1.5 mph SSE2.4 kmh SSE 6.0 mph9.7 kmh 29.91 in1012.9 mb 0.00 in0.0 mm 0.00 in0.0 mm 0.00 in0.0 mm
01:07 AM 67.7°F19.8°C 39.0°F3.9°C 35% 1.0 mph SW1.6 kmh SW 6.0 mph9.7 kmh 29.91 in1012.9 mb 0.00 in0.0 mm 0.00 in0.0 mm 0.00 in0.0 mm
01:02 AM 67.9°F19.9°C 38.3°F3.5°C 34% 1.6 mph W2.6 kmh W 6.0 mph9.7 kmh 29.91 in1012.9 mb 0.00 in0.0 mm 0.00 in0.0 mm 0.00 in0.0 mm
12:57 AM 68.2°F20.1°C 38.6°F3.7°C 34% 4.0 mph WNW6.4 kmh WNW 6.0 mph9.7 kmh 29.91 in1012.9 mb 0.00 in0.0 mm 0.00 in0.0 mm 0.00 in0.0 mm
12:52 AM 68.6°F20.3°C 38.1°F3.4°C 33% 3.2 mph WNW5.1 kmh WNW 4.0 mph6.4 kmh 29.91 in1012.9 mb 0.00 in0.0 mm 0.00 in0.0 mm 0.00 in0.0 mm
12:47 AM 69.5°F20.8°C 38.2°F3.4°C 32% 3.1 mph WSW5.0 kmh WSW 4.0 mph6.4 kmh 29.91 in1012.9 mb 0.00 in0.0 mm 0.00 in0.0 mm 0.00 in0.0 mm
12:42 AM 70.1°F21.2°C 38.0°F3.3°C 31% 2.8 mph WSW4.5 kmh WSW 5.0 mph8.0 kmh 29.91 in1012.9 mb 0.00 in0.0 mm 0.00 in0.0 mm 0.00 in0.0 mm
12:38 AM 71.8°F22.1°C 38.5°F3.6°C 30% 1.2 mph ESE1.9 kmh ESE 5.0 mph8.0 kmh 29.91 in1012.9 mb 0.00 in0.0 mm 0.00 in0.0 mm 0.00 in0.0 mm
12:33 AM 72.6°F22.6°C 37.5°F3.1°C 28% Calm Calm 8.0 mph12.9 kmh 29.91 in1012.9 mb 0.00 in0.0 mm 0.00 in0.0 mm 0.00 in0.0 mm
12:28 AM 72.5°F22.5°C 37.4°F3.0°C 28% 2.5 mph ENE4.0 kmh ENE 8.0 mph12.9 kmh 29.91 in1012.9 mb 0.00 in0.0 mm 0.00 in0.0 mm 0.00 in0.0 mm
12:23 AM 72.0°F22.2°C 36.9°F2.7°C 28% 3.5 mph ENE5.6 kmh ENE 9.0 mph14.5 kmh 29.91 in1012.9 mb 0.00 in0.0 mm 0.00 in0.0 mm 0.00 in0.0 mm
12:18 AM 72.2°F22.3°C 37.1°F2.8°C 28% 4.4 mph ENE7.1 kmh ENE 9.0 mph14.5 kmh 29.91 in1012.9 mb 0.00 in0.0 mm 0.00 in0.0 mm 0.00 in0.0 mm
12:13 AM 72.4°F22.4°C 37.3°F2.9°C 28% 3.0 mph E4.8 kmh E 9.0 mph14.5 kmh 29.91 in1012.9 mb 0.00 in0.0 mm 0.00 in0.0 mm 0.00 in0.0 mm
12:08 AM 72.5°F22.5°C 37.4°F3.0°C 28% 4.2 mph ENE6.8 kmh ENE 11.0 mph17.7 kmh 29.90 in1012.5 mb 0.00 in0.0 mm 0.00 in0.0 mm 0.00 in0.0 mm
12:03 AM 72.2°F22.3°C 37.1°F2.8°C 28% 5.7 mph ENE9.2 kmh ENE 11.0 mph17.7 kmh 29.90 in1012.5 mb 0.00 in0.0 mm 0.00 in0.0 mm 0.00 in0.0 mm